^^
Station Historical Data
Daily Summary for February 3, 2018 Units:  Metric    English   Both
« Previous Day
Next Day »
Daily Weekly Monthly Yearly Custom
  High: Low: Average:
Temperature: -17.8 °C 16.6 °C 26.2 °C
Dew Point: -17.8 °C -4 °C 6.6 °C
Humidity: Humidity% 7% 35%
Wind Speed: 0km/h 0km/h 9km/h
Wind Gust: 0km/h - -
Wind- - SSW
Pressure: 0 hPa 1003.9 hPa -
Precipitation: 0 mm    
Historical Graphs
 
 
Tabular Data for February 3, 2018
Time Temperature Dew Point Pressure Wind Wind Speed Wind Gust Humidity Rainfall Rate (Hourly) solar Conditions
-17.8 °C -17.8 °C 0 hPa Calm     Humidity% 0 mm SolarRadiationWatts/m^2 W/m2 Conditions
00:06 22.7 °C 9.5 °C 1009.4 hPa SSW 14.3 km/h 16.1 km/h 43% 0 mm 0.0 W/m2
00:11 22.7 °C 9.5 °C 1009.4 hPa SSW 14.3 km/h 19.3 km/h 43% 0 mm 0.0 W/m2
00:20 22.5 °C 9.6 °C 1009.4 hPa SSW 16.3 km/h 17.7 km/h 44% 0 mm 0.0 W/m2
00:30 22.4 °C 9.5 °C 1009.4 hPa SSW 14.3 km/h 19.3 km/h 44% 0 mm 0.0 W/m2
00:40 22.2 °C 9.7 °C 1009.4 hPa SW 13 km/h 13 km/h 45% 0 mm 0.0 W/m2
00:45 22 °C 9.5 °C 1009 hPa SW 6.4 km/h 12.9 km/h 45% 0 mm 0.0 W/m2
00:55 21.7 °C 9.6 °C 1009 hPa SW 11.1 km/h 14.5 km/h 46% 0 mm 0.0 W/m2
01:00 21.6 °C 9.5 °C 1009 hPa SW 13 km/h 17.7 km/h 46% 0 mm 0.0 W/m2
01:05 21.4 °C 9.6 °C 1009 hPa SW 13 km/h 16.1 km/h 47% 0 mm 0.0 W/m2
01:10 21.3 °C 9.5 °C 1009 hPa SW 13 km/h 17.7 km/h 47% 0 mm 0.0 W/m2
01:15 21.2 °C 9.8 °C 1009 hPa SW 11.1 km/h 14.5 km/h 48% 0 mm 0.0 W/m2
01:20 21.1 °C 9.7 °C 1009 hPa SW 16.3 km/h 16.3 km/h 48% 0 mm 0.0 W/m2
01:25 21.1 °C 9.7 °C 1009 hPa SW 9.7 km/h 16.1 km/h 48% 0 mm 0.0 W/m2
01:30 20.9 °C 9.8 °C 1009 hPa SW 11.1 km/h 17.7 km/h 49% 0 mm 0.0 W/m2
01:35 20.9 °C 9.8 °C 1009 hPa SW 13 km/h 14.5 km/h 49% 0 mm 0.0 W/m2
01:41 20.8 °C 9.7 °C 1009 hPa SW 11.1 km/h 16.1 km/h 49% 0 mm 0.0 W/m2
01:46 20.8 °C 9.7 °C 1009 hPa SSW 14.3 km/h 16.1 km/h 49% 0 mm 0.0 W/m2
01:51 20.8 °C 10 °C 1008.7 hPa SSW 14.3 km/h 17.7 km/h 50% 0 mm 0.0 W/m2
01:56 20.7 °C 9.9 °C 1008.7 hPa SSW 14.3 km/h 16.1 km/h 50% 0 mm 0.0 W/m2
02:01 20.7 °C 9.9 °C 1008.7 hPa SSW 13 km/h 16.1 km/h 50% 0 mm 0.0 W/m2
02:06 20.6 °C 9.8 °C 1008.7 hPa SSW 11.1 km/h 16.1 km/h 50% 0 mm 0.0 W/m2
02:11 20.5 °C 9.7 °C 1008.7 hPa SSW 11.1 km/h 19.3 km/h 50% 0 mm 0.0 W/m2
02:21 20.4 °C 9.9 °C 1008.7 hPa SSW 13 km/h 14.5 km/h 51% 0 mm 0.0 W/m2
02:27 20.3 °C 9.8 °C 1008.7 hPa SSW 9.7 km/h 12.9 km/h 51% 0 mm 0.0 W/m2
02:32 20.2 °C 10 °C 1008.7 hPa SW 11.1 km/h 14.5 km/h 52% 0 mm 0.0 W/m2
02:37 20.1 °C 9.9 °C 1008.7 hPa SW 14.3 km/h 14.5 km/h 52% 0 mm 0.0 W/m2
02:42 20.1 °C 9.9 °C 1008.7 hPa SW 7.9 km/h 12.9 km/h 52% 0 mm 0.0 W/m2
02:47 20.1 °C 9.9 °C 1008.7 hPa SSW 14.3 km/h 14.5 km/h 52% 0 mm 0.0 W/m2
02:52 20.1 °C 9.9 °C 1008.7 hPa SSW 9.7 km/h 14.5 km/h 52% 0 mm 0.0 W/m2
02:57 20 °C 9.8 °C 1008.4 hPa SSW 11.1 km/h 12.9 km/h 52% 0 mm 0.0 W/m2
03:07 19.9 °C 9.8 °C 1008.7 hPa SSW 9.7 km/h 9.7 km/h 52% 0 mm 0.0 W/m2
03:12 19.7 °C 9.9 °C 1008.7 hPa SSW 6.4 km/h 11.3 km/h 53% 0 mm 0.0 W/m2
03:17 19.6 °C 9.8 °C 1008.4 hPa SSW 9.7 km/h 9.7 km/h 53% 0 mm 0.0 W/m2
03:23 19.4 °C 9.6 °C 1008.4 hPa SSW 7.9 km/h 9.7 km/h 53% 0 mm 0.0 W/m2
03:28 19.3 °C 9.8 °C 1008.4 hPa SSW 7.9 km/h 11.3 km/h 54% 0 mm 0.0 W/m2
03:33 19.2 °C 9.7 °C 1008.4 hPa SSW 7.9 km/h 9.7 km/h 54% 0 mm 0.0 W/m2
03:38 19.2 °C 9.7 °C 1008.4 hPa SSW 6.4 km/h 9.7 km/h 54% 0 mm 0.0 W/m2
03:43 19.1 °C 9.6 °C 1008.4 hPa SSW 6.4 km/h 9.7 km/h 54% 0 mm 0.0 W/m2
03:48 19 °C 9.8 °C 1008.4 hPa SSW 6.4 km/h 8 km/h 55% 0 mm 0.0 W/m2
03:53 18.8 °C 9.6 °C 1008.4 hPa SSW 6.4 km/h 8 km/h 55% 0 mm 0.0 W/m2
03:58 18.7 °C 9.5 °C 1008.4 hPa SSW 6.4 km/h 8 km/h 55% 0 mm 0.0 W/m2
04:03 18.7 °C 9.7 °C 1008.4 hPa SSW 7.9 km/h 9.7 km/h 56% 0 mm 0.0 W/m2
04:08 18.6 °C 9.6 °C 1008.4 hPa SSW 7.9 km/h 11.3 km/h 56% 0 mm 0.0 W/m2
04:13 18.7 °C 9.7 °C 1008.4 hPa SSW 7.9 km/h 11.3 km/h 56% 0 mm 0.0 W/m2
04:18 18.7 °C 9.7 °C 1008 hPa SSW 9.7 km/h 11.3 km/h 56% 0 mm 0.0 W/m2
04:28 18.6 °C 9.9 °C 1008.4 hPa SSW 4.7 km/h 9.7 km/h 57% 0 mm 0.0 W/m2
04:33 18.5 °C 9.8 °C 1008.4 hPa SSW 7.9 km/h 9.7 km/h 57% 0 mm 0.0 W/m2
04:38 18.3 °C 9.6 °C 1008.4 hPa SSW 6.4 km/h 8 km/h 57% 0 mm 0.0 W/m2
04:43 18.3 °C 9.9 °C 1008.4 hPa SSW 7.9 km/h 8 km/h 58% 0 mm 0.0 W/m2
04:48 18.3 °C 9.9 °C 1008.4 hPa SSW 6.4 km/h 8 km/h 58% 0 mm 0.0 W/m2
04:53 18.2 °C 9.8 °C 1008.4 hPa Calm   6.4 km/h 58% 0 mm 0.0 W/m2
04:59 18.2 °C 9.8 °C 1008.4 hPa Calm     58% 0 mm 0.0 W/m2
05:04 18.1 °C 10 °C 1008.4 hPa Calm     59% 0 mm 0.0 W/m2
05:09 18 °C 9.9 °C 1008.7 hPa SSW 6.4 km/h 8 km/h 59% 0 mm 0.0 W/m2
05:19 17.8 °C 9.9 °C 1008.7 hPa SSW 9.7 km/h 9.7 km/h 60% 0 mm 0.0 W/m2
05:24 17.9 °C 10 °C 1008.7 hPa SSW 7.9 km/h 8 km/h 60% 0 mm 0.0 W/m2
05:30 17.9 °C 10 °C 1008.7 hPa SSW 6.4 km/h 8 km/h 60% 0 mm 0.0 W/m2
05:35 17.8 °C 9.9 °C 1008.7 hPa SSW 9.7 km/h 9.7 km/h 60% 0 mm 0.0 W/m2
05:45 17.8 °C 9.9 °C 1008.7 hPa SSW 4.7 km/h 8 km/h 60% 0 mm 0.0 W/m2
05:50 17.7 °C 9.8 °C 1009 hPa SSW 7.9 km/h 8 km/h 60% 0 mm 0.0 W/m2
05:55 17.7 °C 9.8 °C 1009 hPa SSW 4.7 km/h 6.4 km/h 60% 0 mm 0.0 W/m2
06:00 17.6 °C 10 °C 1008.7 hPa SSW 4.7 km/h 6.4 km/h 61% 0 mm 0.0 W/m2
06:05 17.5 °C 9.9 °C 1009 hPa Calm     61% 0 mm 0.0 W/m2
06:10 17.3 °C 9.7 °C 1009 hPa Calm     61% 0 mm 0.0 W/m2
06:20 17 °C 9.9 °C 1009 hPa Calm     63% 0 mm 0.0 W/m2
06:30 16.7 °C 9.4 °C 1009 hPa Calm     62% 0 mm 9.0 W/m2
06:35 16.7 °C 9.4 °C 1009.4 hPa Calm     62% 0 mm 12.0 W/m2
06:40 16.6 °C 9.3 °C 1009.4 hPa Calm     62% 0 mm 16.0 W/m2
06:46 16.7 °C 9.6 °C 1009.4 hPa Calm     63% 0 mm 21.0 W/m2
06:58 17.2 °C 9.6 °C 1009.4 hPa Calm     61% 0 mm 46.0 W/m2
07:08 17.7 °C 9.8 °C 1009.4 hPa Calm     60% 0 mm 77.0 W/m2
07:15 18 °C 9.9 °C 1009.4 hPa Calm     59% 0 mm 95.0 W/m2
07:27 18.6 °C 10.2 °C 1009.7 hPa Calm     58% 0 mm 135.0 W/m2
07:36 19.4 °C 10.1 °C 1009.7 hPa Calm     55% 0 mm 179.0 W/m2
08:12 21.1 °C 10.3 °C 1009.7 hPa SW 9.7 km/h 12.9 km/h 50% 0 mm 315.0 W/m2
08:23 21.5 °C 10.3 °C 1009.7 hPa SW 11.1 km/h 12.9 km/h 49% 0 mm 350.0 W/m2
08:33 21.8 °C 10.3 °C 1010 hPa SW 7.9 km/h 12.9 km/h 48% 0 mm 387.0 W/m2
08:43 22.2 °C 10.4 °C 1010 hPa SW 9.7 km/h 14.5 km/h 47% 0 mm 422.0 W/m2
08:53 22.5 °C 10 °C 1010 hPa SW 7.9 km/h 12.9 km/h 45% 0 mm 459.0 W/m2
09:07 23.2 °C 9.9 °C 1010 hPa SW 9.7 km/h 12.9 km/h 43% 0 mm 506.0 W/m2
09:16 23.7 °C 10 °C 1010 hPa SW 13 km/h 13 km/h 42% 0 mm 541.0 W/m2
09:47 25.2 °C 9.1 °C 1010 hPa Calm   4.8 km/h 36% 0 mm 636.0 W/m2
09:57 25.7 °C 8.7 °C 1010 hPa Calm     34% 0 mm 671.0 W/m2
10:06 26.4 °C 8.4 °C 1010 hPa Calm     32% 0 mm 701.0 W/m2
10:16 26.9 °C 8.3 °C 1010 hPa Calm     31% 0 mm 729.0 W/m2
10:21 27.1 °C 8.5 °C 1010 hPa Calm     31% 0 mm 745.0 W/m2
10:30 27.6 °C 8 °C 1009.7 hPa Calm     29% 0 mm 775.0 W/m2
10:36 27.7 °C 7.5 °C 1009.7 hPa Calm     28% 0 mm 786.0 W/m2
10:46 28.2 °C 7.4 °C 1009.7 hPa Calm     27% 0 mm 810.0 W/m2
10:51 28.6 °C 7.2 °C 1009.7 hPa Calm     26% 0 mm 817.0 W/m2
10:56 28.8 °C 7.4 °C 1009.7 hPa Calm     26% 0 mm 833.0 W/m2
11:02 29.1 °C 7.1 °C 1009.7 hPa Calm     25% 0 mm 846.0 W/m2
11:12 30 °C 6.6 °C 1009.4 hPa Calm     23% 0 mm 865.0 W/m2
11:17 30.3 °C 6.2 °C 1009.4 hPa Calm     22% 0 mm 874.0 W/m2
11:28 30.7 °C 5.9 °C 1009.4 hPa Calm     21% 0 mm 895.0 W/m2
11:37 31.2 °C 5.6 °C 1009 hPa Calm     20% 0 mm 911.0 W/m2
11:42 31.4 °C 5.7 °C 1009 hPa SW 3.2 km/h 9.7 km/h 20% 0 mm 916.0 W/m2
11:47 31.9 °C 5.4 °C 1009 hPa SW 6.4 km/h 11.3 km/h 19% 0 mm 925.0 W/m2
11:52 31.8 °C 5.3 °C 1009 hPa Calm   11.3 km/h 19% 0 mm 928.0 W/m2
11:57 31.8 °C 5.3 °C 1009 hPa Calm   8 km/h 19% 0 mm 935.0 W/m2
12:02 32.1 °C 5.6 °C 1008.7 hPa SW 3.2 km/h 12.9 km/h 19% 0 mm 940.0 W/m2
12:07 32.2 °C 5.7 °C 1008.7 hPa SSW 7.9 km/h 22.5 km/h 19% 0 mm 944.0 W/m2
12:13 32.5 °C 4.3 °C 1008.7 hPa SSW 7.9 km/h 12.9 km/h 17% 0 mm 947.0 W/m2
12:23 32.7 °C 5.3 °C 1008.4 hPa SSW 13 km/h 17.7 km/h 18% 0 mm 958.0 W/m2
12:29 32.9 °C 4.6 °C 1008.4 hPa SSW 9.7 km/h 14.5 km/h 17% 0 mm 960.0 W/m2
12:34 33.1 °C 4.8 °C 1008.4 hPa SSW 1.4 km/h 14.5 km/h 17% 0 mm 960.0 W/m2
12:53 33.9 °C 4.6 °C 1008 hPa Calm   9.7 km/h 16% 0 mm 970.0 W/m2
13:03 34.3 °C 4.9 °C 1007.7 hPa SSW 1.4 km/h 12.9 km/h 16% 0 mm 972.0 W/m2
13:09 34.4 °C 4 °C 1007.7 hPa Calm   11.3 km/h 15% 0 mm 969.0 W/m2
13:14 34.6 °C 4.2 °C 1007.7 hPa SSW 9.7 km/h 17.7 km/h 15% 0 mm 969.0 W/m2
13:20 34.7 °C 4.3 °C 1007.3 hPa SSW 9.7 km/h 14.5 km/h 15% 0 mm 965.0 W/m2
13:28 35.2 °C 3.7 °C 1007.3 hPa SSW 7.9 km/h 19.3 km/h 14% 0 mm 962.0 W/m2
13:34 35.2 °C 3.7 °C 1007.3 hPa SSW 11.1 km/h 14.5 km/h 14% 0 mm 963.0 W/m2
13:53 36 °C 2.1 °C 1006.7 hPa WSW 14.3 km/h 17.7 km/h 12% 0 mm 951.0 W/m2
14:24 37.4 °C 2 °C 1006.3 hPa Calm     11% 0 mm 925.0 W/m2
14:40 37.6 °C 2.1 °C 1006.3 hPa Calm     11% 0 mm 904.0 W/m2
14:54 37.3 °C 3.1 °C 1006 hPa WSW 3.2 km/h 3.2 km/h 12% 0 mm 877.0 W/m2
15:10 37.5 °C 3.3 °C 1005.6 hPa WSW 1.4 km/h 8 km/h 12% 0 mm 844.0 W/m2
15:40 37.8 °C 2.3 °C 1005.3 hPa SW 3.2 km/h 9.7 km/h 11% 0 mm 772.0 W/m2
15:55 38.3 °C 2.7 °C 1005 hPa SW 16.3 km/h 17.7 km/h 11% 0 mm 733.0 W/m2
16:09 38 °C 2.4 °C 1004.6 hPa SSW 13 km/h 16.1 km/h 11% 0 mm 691.0 W/m2
16:19 37.9 °C 2.4 °C 1004.6 hPa SSW 16.3 km/h 16.3 km/h 11% 0 mm 663.0 W/m2
16:31 38.4 °C 2.7 °C 1004.6 hPa SSE 4.7 km/h 14.5 km/h 11% 0 mm 636.0 W/m2
16:43 38.2 °C 1.3 °C 1004.3 hPa Calm     10% 0 mm 589.0 W/m2
16:54 38.3 °C 1.3 °C 1004.3 hPa SSE 11.1 km/h 14.5 km/h 10% 0 mm 548.0 W/m2
17:21 38.4 °C -1.7 °C 1003.9 hPa Calm   4.8 km/h 8% 0 mm 462.0 W/m2
17:46 38.2 °C -0.2 °C 1003.9 hPa South 16.3 km/h 19.3 km/h 9% 0 mm 373.0 W/m2
17:54 37.9 °C -0.4 °C 1003.9 hPa Calm     9% 0 mm 336.0 W/m2
18:47 37.6 °C -4 °C 1003.9 hPa South 11.1 km/h 12.9 km/h 7% 0 mm 141.0 W/m2
18:57 37.4 °C -0.8 °C 1003.9 hPa South 16.3 km/h 16.3 km/h 9% 0 mm 102.0 W/m2
19:06 37.2 °C 1.8 °C 1003.9 hPa South 11.1 km/h 17.7 km/h 11% 0 mm 65.0 W/m2
19:33 36.6 °C 0 °C 1003.9 hPa South 11.1 km/h 14.5 km/h 10% 0 mm 12.0 W/m2
19:45 36.1 °C 2.2 °C 1004.3 hPa South 22.7 km/h 25.7 km/h 12% 0 mm 0.0 W/m2
19:52 35.8 °C 2 °C 1004.3 hPa South 19.5 km/h 24.1 km/h 12% 0 mm 0.0 W/m2
20:01 35.4 °C 2.8 °C 1004.3 hPa South 24.1 km/h 27.4 km/h 13% 0 mm 0.0 W/m2
20:11 35.1 °C 2.6 °C 1004.6 hPa South 20.9 km/h 22.5 km/h 13% 0 mm 0.0 W/m2
20:20 34.8 °C 2.3 °C 1004.6 hPa South 13 km/h 16.1 km/h 13% 0 mm 0.0 W/m2
20:30 34.6 °C 2.2 °C 1004.6 hPa South 14.3 km/h 17.7 km/h 13% 0 mm 0.0 W/m2
20:39 34.3 °C 1.9 °C 1004.6 hPa South 9.7 km/h 11.3 km/h 13% 0 mm 0.0 W/m2
20:45 34.1 °C 1.8 °C 1005 hPa South 17.7 km/h 29 km/h 13% 0 mm 0.0 W/m2
20:54 33.9 °C 0.5 °C 1005.3 hPa South 20.9 km/h 22.5 km/h 12% 0 mm 0.0 W/m2
20:59 33.8 °C 0.4 °C 1005.3 hPa South 16.3 km/h 22.5 km/h 12% 0 mm 0.0 W/m2
21:04 33.7 °C 0.4 °C 1005.3 hPa South 16.3 km/h 22.5 km/h 12% 0 mm 0.0 W/m2
21:09 33.6 °C 0.3 °C 1005.3 hPa South 19.5 km/h 24.1 km/h 12% 0 mm 0.0 W/m2
21:14 33.4 °C 0.1 °C 1005.3 hPa South 20.9 km/h 24.1 km/h 12% 0 mm 0.0 W/m2
21:26 33.1 °C 1 °C 1005.6 hPa South 13 km/h 20.9 km/h 13% 0 mm 0.0 W/m2
21:35 32.7 °C 0.7 °C 1005.6 hPa South 13 km/h 14.5 km/h 13% 0 mm 0.0 W/m2
21:50 31.8 °C 4.6 °C 1006 hPa SSW 19.5 km/h 22.5 km/h 18% 0 mm 0.0 W/m2
22:00 31.4 °C 5 °C 1006 hPa SSW 16.3 km/h 17.7 km/h 19% 0 mm 0.0 W/m2
22:05 31.2 °C 4.8 °C 1006 hPa SSW 16.3 km/h 19.3 km/h 19% 0 mm 0.0 W/m2
22:10 31 °C 5.4 °C 1006 hPa SSW 14.3 km/h 16.1 km/h 20% 0 mm 0.0 W/m2
22:15 30.8 °C 5.2 °C 1006.3 hPa SSW 13 km/h 19.3 km/h 20% 0 mm 0.0 W/m2
22:20 30.6 °C 5.1 °C 1006.3 hPa SSW 17.7 km/h 19.3 km/h 20% 0 mm 0.0 W/m2
22:25 30.5 °C 5 °C 1006.3 hPa SW 17.7 km/h 22.5 km/h 20% 0 mm 0.0 W/m2
22:35 30.3 °C 4.8 °C 1006.3 hPa SW 20.9 km/h 24.1 km/h 20% 0 mm 0.0 W/m2
22:40 30.2 °C 5.5 °C 1006.3 hPa SW 17.7 km/h 24.1 km/h 21% 0 mm 0.0 W/m2
22:45 30.1 °C 5.4 °C 1006.3 hPa SW 19.5 km/h 19.5 km/h 21% 0 mm 0.0 W/m2
22:50 29.9 °C 5.2 °C 1006 hPa SW 14.3 km/h 20.9 km/h 21% 0 mm 0.0 W/m2
22:55 29.8 °C 5.1 °C 1006.3 hPa SW 13 km/h 22.5 km/h 21% 0 mm 0.0 W/m2
23:00 29.6 °C 5 °C 1006.3 hPa SW 19.5 km/h 22.5 km/h 21% 0 mm 0.0 W/m2
23:10 29.6 °C 5 °C 1006.3 hPa SW 19.5 km/h 25.7 km/h 21% 0 mm 0.0 W/m2
23:15 29.5 °C 4.9 °C 1006.3 hPa SW 17.7 km/h 24.1 km/h 21% 0 mm 0.0 W/m2
23:20 29.4 °C 5.5 °C 1006.3 hPa SW 17.7 km/h 25.7 km/h 22% 0 mm 0.0 W/m2
23:25 29.3 °C 5.4 °C 1006.3 hPa SW 24.1 km/h 24.1 km/h 22% 0 mm 0.0 W/m2
23:31 29.1 °C 5.2 °C 1006.7 hPa SW 24.1 km/h 24.1 km/h 22% 0 mm 0.0 W/m2
23:40 28.8 °C 5 °C 1006.7 hPa SW 20.9 km/h 22.5 km/h 22% 0 mm 0.0 W/m2
23:45 28.8 °C 5 °C 1006.7 hPa SSW 19.5 km/h 22.5 km/h 22% 0 mm 0.0 W/m2
23:55 28.6 °C 4.8 °C 1006.7 hPa SSW 13 km/h 19.3 km/h 22% 0 mm 0.0 W/m2
Canyon Roadhouse, Fishriver Canyon, Namibia
Compliments of Weather Underground - 2.5 mb